createdAt,value
2017-10-12T00:00:09.904Z,11.00
2017-10-12T00:02:38.227Z,11.00
2017-10-12T00:05:06.565Z,10.90
2017-10-12T00:07:34.838Z,11.00
2017-10-12T00:10:03.144Z,10.90
2017-10-12T00:12:31.417Z,10.80
2017-10-12T00:14:59.707Z,10.80
2017-10-12T00:17:28.028Z,10.80
2017-10-12T00:19:56.312Z,10.90
2017-10-12T00:22:25.390Z,10.80
2017-10-12T00:24:53.684Z,10.80
2017-10-12T00:27:21.990Z,10.80
2017-10-12T00:29:50.282Z,10.80
2017-10-12T00:32:18.572Z,10.80
2017-10-12T00:34:46.894Z,10.80
2017-10-12T00:37:15.197Z,10.80
2017-10-12T00:39:44.294Z,10.90
2017-10-12T00:42:12.582Z,10.90
2017-10-12T00:44:40.887Z,10.80
2017-10-12T00:47:09.938Z,10.90
2017-10-12T00:49:38.219Z,10.80
2017-10-12T00:52:06.820Z,10.90
2017-10-12T00:54:35.094Z,10.90
2017-10-12T00:57:03.382Z,11.00
2017-10-12T00:59:31.671Z,11.00
2017-10-12T01:01:59.954Z,11.00
2017-10-12T01:04:28.269Z,11.00
2017-10-12T01:06:56.552Z,11.00
2017-10-12T01:09:24.831Z,11.20
2017-10-12T01:11:53.254Z,11.20
2017-10-12T01:14:21.542Z,11.20
2017-10-12T01:16:49.835Z,11.20
2017-10-12T01:19:18.128Z,11.30
2017-10-12T01:21:46.428Z,11.30
2017-10-12T01:24:14.723Z,11.20
2017-10-12T01:26:43.041Z,11.30
2017-10-12T01:29:11.373Z,11.40
2017-10-12T01:31:40.480Z,11.40
2017-10-12T01:34:08.794Z,11.40
2017-10-12T01:36:37.125Z,11.40
2017-10-12T01:39:05.474Z,11.40
2017-10-12T01:41:33.810Z,11.40
2017-10-12T01:44:02.159Z,11.40
2017-10-12T01:46:30.525Z,11.50
2017-10-12T01:48:58.857Z,11.50
2017-10-12T01:51:27.198Z,11.60
2017-10-12T01:53:56.329Z,11.70
2017-10-12T01:56:24.761Z,11.60
2017-10-12T01:58:53.149Z,11.70
2017-10-12T02:01:21.524Z,11.70
2017-10-12T02:03:50.645Z,11.60
2017-10-12T02:06:20.076Z,11.70
2017-10-12T02:08:48.444Z,11.60
2017-10-12T02:11:16.840Z,11.60
2017-10-12T02:13:45.219Z,11.60
2017-10-12T02:16:13.608Z,11.50
2017-10-12T02:18:42.802Z,11.50
2017-10-12T02:21:11.097Z,11.50
2017-10-12T02:23:39.399Z,11.50
2017-10-12T02:26:08.471Z,11.50
2017-10-12T02:28:36.760Z,11.50
2017-10-12T02:31:05.040Z,11.50
2017-10-12T02:33:33.363Z,11.50
2017-10-12T02:36:01.684Z,11.50
2017-10-12T02:38:30.768Z,11.50
2017-10-12T02:40:59.814Z,11.50
2017-10-12T02:43:28.111Z,11.50
2017-10-12T02:45:56.413Z,11.50
2017-10-12T02:48:24.719Z,11.50
2017-10-12T02:50:53.027Z,11.60
2017-10-12T02:53:21.315Z,11.70
2017-10-12T02:55:49.607Z,11.70
2017-10-12T02:58:17.917Z,11.70
2017-10-12T03:00:46.210Z,11.70
2017-10-12T03:03:14.499Z,11.70
2017-10-12T03:05:42.799Z,11.70
2017-10-12T03:08:11.122Z,11.70
2017-10-12T03:10:39.410Z,11.80
2017-10-12T03:13:07.704Z,11.80
2017-10-12T03:15:36.029Z,11.80
2017-10-12T03:18:04.354Z,11.80
2017-10-12T03:20:32.723Z,11.80
2017-10-12T03:23:01.056Z,11.80
2017-10-12T03:25:29.402Z,11.70
2017-10-12T03:27:57.722Z,11.60
2017-10-12T03:30:26.109Z,11.60
2017-10-12T03:32:54.487Z,11.60
2017-10-12T03:35:22.862Z,11.50
2017-10-12T03:37:51.227Z,11.50
2017-10-12T03:40:20.315Z,11.40
2017-10-12T03:42:48.699Z,11.40
2017-10-12T03:45:17.027Z,11.40
2017-10-12T03:47:46.118Z,11.30
2017-10-12T03:50:14.451Z,11.30
2017-10-12T03:52:42.759Z,11.30
2017-10-12T03:55:11.071Z,11.30
2017-10-12T03:57:39.368Z,11.20
2017-10-12T04:00:07.664Z,11.20
2017-10-12T04:02:35.992Z,11.20
2017-10-12T04:05:04.282Z,11.10
2017-10-12T04:07:32.603Z,11.10
2017-10-12T04:10:00.882Z,11.10
2017-10-12T04:12:29.170Z,11.10
2017-10-12T04:14:57.492Z,11.10
2017-10-12T04:17:25.780Z,11.10
2017-10-12T04:19:54.088Z,11.20
2017-10-12T04:22:23.176Z,11.10
2017-10-12T04:24:51.467Z,11.10
2017-10-12T04:27:19.783Z,11.10
2017-10-12T04:29:48.360Z,11.10
2017-10-12T04:32:17.415Z,11.00
2017-10-12T04:34:45.700Z,11.00
2017-10-12T04:37:13.999Z,11.00
2017-10-12T04:39:42.327Z,11.00
2017-10-12T04:42:10.620Z,11.10
2017-10-12T04:44:38.927Z,11.00
2017-10-12T04:47:07.229Z,11.10
2017-10-12T04:49:35.535Z,11.00
2017-10-12T04:52:03.835Z,11.00
2017-10-12T04:54:32.120Z,11.00
2017-10-12T04:57:00.667Z,10.90
2017-10-12T04:59:29.719Z,10.90
2017-10-12T05:01:58.016Z,10.90
2017-10-12T05:04:26.323Z,10.90
2017-10-12T05:06:54.603Z,10.90
2017-10-12T05:09:22.891Z,10.90
2017-10-12T05:11:51.183Z,11.00
2017-10-12T05:14:19.487Z,11.00
2017-10-12T05:16:47.779Z,11.00
2017-10-12T05:19:16.124Z,11.00
2017-10-12T05:21:44.427Z,11.00
2017-10-12T05:24:12.765Z,11.00
2017-10-12T05:26:41.835Z,11.00
2017-10-12T05:29:10.118Z,11.00
2017-10-12T05:31:38.417Z,11.00
2017-10-12T05:34:06.720Z,11.00
2017-10-12T05:36:35.037Z,11.00
2017-10-12T05:39:03.364Z,10.90
2017-10-12T05:41:31.651Z,10.90
2017-10-12T05:43:59.952Z,11.00
2017-10-12T05:46:28.355Z,11.00
2017-10-12T05:48:56.667Z,10.90
2017-10-12T05:51:25.760Z,10.80
2017-10-12T05:53:54.975Z,10.80
2017-10-12T05:56:23.266Z,10.80
2017-10-12T05:58:51.555Z,10.80
2017-10-12T06:01:19.854Z,10.70
2017-10-12T06:03:48.931Z,10.50
2017-10-12T06:06:17.222Z,10.50
2017-10-12T06:08:45.529Z,10.40
2017-10-12T06:13:48.519Z,10.60
2017-10-12T06:16:17.159Z,10.70
2017-10-12T06:18:45.467Z,10.80
2017-10-12T06:21:13.795Z,10.90
2017-10-12T06:23:42.096Z,10.90
2017-10-12T06:26:10.395Z,11.00
2017-10-12T06:28:38.722Z,11.00
2017-10-12T06:31:07.766Z,11.20
2017-10-12T06:33:36.072Z,11.10
2017-10-12T06:36:04.351Z,11.20
2017-10-12T06:38:32.667Z,11.10
2017-10-12T06:41:00.960Z,11.10
2017-10-12T06:43:30.116Z,11.10
2017-10-12T06:45:58.459Z,11.10
2017-10-12T06:48:27.684Z,11.10
2017-10-12T06:50:56.083Z,11.10
2017-10-12T06:53:24.485Z,11.10
2017-10-12T06:55:52.784Z,11.10
2017-10-12T06:58:21.111Z,11.00
2017-10-12T07:00:49.407Z,10.90
2017-10-12T07:03:17.735Z,10.80
2017-10-12T07:05:46.053Z,10.70
2017-10-12T07:08:14.368Z,10.70
2017-10-12T07:10:42.672Z,10.70
2017-10-12T07:13:11.040Z,10.60
2017-10-12T07:15:39.361Z,10.60
2017-10-12T07:18:07.662Z,10.50
2017-10-12T07:20:36.719Z,10.50
2017-10-12T07:23:05.048Z,10.40
2017-10-12T07:25:33.354Z,10.50
2017-10-12T07:28:02.449Z,10.50
2017-10-12T07:30:31.507Z,10.50
2017-10-12T07:32:59.888Z,10.50
2017-10-12T07:35:28.196Z,10.60
2017-10-12T07:37:56.503Z,10.70
2017-10-12T07:40:24.850Z,10.60
2017-10-12T07:42:53.144Z,10.60
2017-10-12T07:45:21.431Z,10.60
2017-10-12T07:47:49.759Z,10.60
2017-10-12T07:50:18.079Z,10.60
2017-10-12T07:52:47.151Z,10.50
2017-10-12T07:55:15.449Z,10.50
2017-10-12T07:57:43.777Z,10.40
2017-10-12T08:00:12.103Z,10.40
2017-10-12T08:02:40.403Z,10.40
2017-10-12T08:05:08.691Z,10.40
2017-10-12T08:07:37.007Z,10.40
2017-10-12T08:10:05.330Z,10.30
2017-10-12T08:12:33.671Z,10.30
2017-10-12T08:15:01.959Z,10.40
2017-10-12T08:17:30.264Z,10.40
2017-10-12T08:19:58.550Z,10.60
2017-10-12T08:22:26.834Z,10.70
2017-10-12T08:24:55.153Z,10.80
2017-10-12T08:27:23.454Z,11.00
2017-10-12T08:29:51.776Z,11.00
2017-10-12T08:32:20.080Z,11.00
2017-10-12T08:34:48.411Z,10.90
2017-10-12T08:37:16.698Z,10.90
2017-10-12T08:39:45.761Z,11.00
2017-10-12T08:42:14.081Z,11.00
2017-10-12T08:44:43.145Z,11.00
2017-10-12T08:47:11.475Z,11.00
2017-10-12T08:49:40.528Z,11.00
2017-10-12T08:52:08.853Z,11.10
2017-10-12T08:54:37.139Z,11.10
2017-10-12T08:57:05.434Z,11.20
2017-10-12T08:59:33.753Z,11.30
2017-10-12T09:02:02.848Z,12.00
2017-10-12T09:04:32.825Z,12.00
2017-10-12T09:07:01.110Z,12.00
2017-10-12T09:09:29.394Z,12.00
2017-10-12T09:11:57.683Z,12.00
2017-10-12T09:14:25.998Z,11.80
2017-10-12T09:16:54.376Z,11.70
2017-10-12T09:19:22.673Z,11.60
2017-10-12T09:21:50.969Z,11.60
2017-10-12T09:24:19.323Z,11.60
2017-10-12T09:26:47.607Z,11.60
2017-10-12T09:29:15.904Z,11.60
2017-10-12T09:31:44.210Z,11.70
2017-10-12T09:34:12.515Z,11.70
2017-10-12T09:36:40.842Z,11.90
2017-10-12T09:39:09.221Z,12.00
2017-10-12T09:41:38.374Z,11.90
2017-10-12T09:44:06.764Z,11.90
2017-10-12T09:46:35.140Z,12.00
2017-10-12T09:49:03.536Z,11.80
2017-10-12T09:51:31.876Z,11.60
2017-10-12T09:54:01.006Z,11.70
2017-10-12T09:56:29.384Z,11.70
2017-10-12T09:58:58.492Z,12.00
2017-10-12T10:01:26.854Z,11.90
2017-10-12T10:03:55.197Z,11.90
2017-10-12T10:06:23.563Z,11.70
2017-10-12T10:08:52.721Z,11.50
2017-10-12T10:11:21.074Z,11.50
2017-10-12T10:13:50.193Z,11.60
2017-10-12T10:16:19.352Z,11.60
2017-10-12T10:18:49.084Z,11.60
2017-10-12T10:21:17.380Z,11.50
2017-10-12T10:23:45.673Z,11.50
2017-10-12T10:26:14.002Z,11.60
2017-10-12T10:28:42.301Z,11.60
2017-10-12T10:31:10.610Z,11.60
2017-10-12T10:33:38.899Z,11.60
2017-10-12T10:36:07.196Z,11.80
2017-10-12T10:38:35.509Z,11.80
2017-10-12T10:41:03.884Z,11.90
2017-10-12T10:43:32.218Z,12.00
2017-10-12T10:46:00.585Z,12.20
2017-10-12T10:48:28.961Z,12.40
2017-10-12T10:50:57.337Z,12.40
2017-10-12T10:53:25.733Z,12.40
2017-10-12T10:55:54.106Z,12.50
2017-10-12T10:58:22.510Z,12.60
2017-10-12T11:00:50.889Z,12.60
2017-10-12T11:03:19.222Z,12.60
2017-10-12T11:05:48.373Z,12.90
2017-10-12T11:08:16.787Z,12.90
2017-10-12T11:10:46.186Z,13.00
2017-10-12T11:13:14.593Z,13.00
2017-10-12T11:15:42.935Z,13.00
2017-10-12T11:18:11.329Z,12.90
2017-10-12T11:20:40.472Z,13.00
2017-10-12T11:23:08.879Z,13.00
2017-10-12T11:25:37.254Z,12.80
2017-10-12T11:28:05.653Z,12.50
2017-10-12T11:30:34.016Z,12.50
2017-10-12T11:33:02.411Z,12.60
2017-10-12T11:35:30.784Z,12.80
2017-10-12T11:37:59.169Z,12.80
2017-10-12T11:40:27.567Z,12.90
2017-10-12T11:42:56.681Z,12.80
2017-10-12T11:45:25.074Z,12.80
2017-10-12T11:47:53.402Z,12.40
2017-10-12T11:50:21.791Z,12.20
2017-10-12T11:52:50.184Z,12.10
2017-10-12T11:55:18.572Z,12.00
2017-10-12T11:57:47.228Z,12.00
2017-10-12T12:00:15.551Z,12.10
2017-10-12T12:02:43.875Z,12.00
2017-10-12T12:05:12.176Z,12.00
2017-10-12T12:07:40.523Z,12.20
2017-10-12T12:10:08.805Z,12.40
2017-10-12T12:12:37.114Z,12.80
2017-10-12T12:15:05.400Z,13.20
2017-10-12T12:17:33.726Z,13.70
2017-10-12T12:20:02.785Z,13.80
2017-10-12T12:22:31.074Z,13.80
2017-10-12T12:24:59.388Z,13.70
2017-10-12T12:27:27.680Z,13.70
2017-10-12T12:29:55.971Z,13.70
2017-10-12T12:32:24.284Z,13.40
2017-10-12T12:34:53.343Z,13.20
2017-10-12T12:37:21.655Z,13.20
2017-10-12T12:39:49.968Z,13.40
2017-10-12T12:42:19.045Z,13.50
2017-10-12T12:44:47.356Z,13.50
2017-10-12T12:47:16.520Z,13.40
2017-10-12T12:49:44.833Z,13.40
2017-10-12T12:52:13.205Z,13.20
2017-10-12T12:54:41.500Z,13.10
2017-10-12T12:57:09.785Z,13.00
2017-10-12T12:59:38.108Z,12.90
2017-10-12T13:02:07.202Z,13.10
2017-10-12T13:04:35.543Z,13.00
2017-10-12T13:07:03.840Z,13.10
2017-10-12T13:09:32.899Z,13.00
2017-10-12T13:12:01.185Z,13.20
2017-10-12T13:14:29.475Z,13.40
2017-10-12T13:16:57.762Z,13.40
2017-10-12T13:19:26.062Z,13.30
2017-10-12T13:21:54.349Z,13.10
2017-10-12T13:24:22.661Z,13.20
2017-10-12T13:26:51.735Z,13.10
2017-10-12T13:29:20.025Z,13.10
2017-10-12T13:31:48.677Z,13.20
2017-10-12T13:34:16.979Z,13.10
2017-10-12T13:36:45.272Z,13.00
2017-10-12T13:39:13.606Z,12.80
2017-10-12T13:41:42.675Z,12.70
2017-10-12T13:44:10.959Z,12.70
2017-10-12T13:46:39.244Z,12.60
2017-10-12T13:49:07.542Z,12.60
2017-10-12T13:51:35.844Z,12.60
2017-10-12T13:54:04.136Z,12.60
2017-10-12T13:56:32.463Z,12.60
2017-10-12T13:59:00.795Z,12.60
2017-10-12T14:01:29.140Z,12.40
2017-10-12T14:03:57.419Z,12.40
2017-10-12T14:06:26.468Z,12.50
2017-10-12T14:08:54.773Z,12.50
2017-10-12T14:11:23.057Z,12.80
2017-10-12T14:13:51.409Z,12.80
2017-10-12T14:16:19.732Z,12.60
2017-10-12T14:18:48.027Z,12.80
2017-10-12T14:21:16.340Z,12.90
2017-10-12T14:23:44.661Z,13.10
2017-10-12T14:26:13.000Z,13.10
2017-10-12T14:28:41.359Z,13.20
2017-10-12T14:31:09.647Z,13.30
2017-10-12T14:33:37.963Z,13.40
2017-10-12T14:36:06.261Z,13.40
2017-10-12T14:38:34.584Z,13.40
2017-10-12T14:41:03.683Z,13.90
2017-10-12T14:43:32.742Z,14.10
2017-10-12T14:46:01.180Z,14.10
2017-10-12T14:48:30.246Z,13.70
2017-10-12T14:50:58.535Z,13.60
2017-10-12T14:53:26.824Z,13.00
2017-10-12T14:55:55.297Z,12.80
2017-10-12T14:58:23.586Z,12.50
2017-10-12T15:00:51.870Z,12.50
2017-10-12T15:03:20.161Z,12.50
2017-10-12T15:05:48.469Z,12.40
2017-10-12T15:08:16.832Z,12.30
2017-10-12T15:10:45.155Z,12.10
2017-10-12T15:13:13.501Z,11.90
2017-10-12T15:15:42.740Z,11.90
2017-10-12T15:18:11.024Z,11.90
2017-10-12T15:20:39.389Z,11.70
2017-10-12T15:23:08.452Z,11.60
2017-10-12T15:25:36.734Z,11.60
2017-10-12T15:28:05.016Z,11.60
2017-10-12T15:30:34.127Z,11.40
2017-10-12T15:33:03.235Z,11.30
2017-10-12T15:35:31.541Z,11.30
2017-10-12T15:37:59.830Z,11.20
2017-10-12T15:40:28.127Z,11.20
2017-10-12T15:42:56.590Z,11.10
2017-10-12T15:45:24.882Z,11.10
2017-10-12T15:47:53.172Z,11.00
2017-10-12T15:50:21.463Z,11.00
2017-10-12T15:52:49.763Z,11.00
2017-10-12T15:55:18.089Z,10.90
2017-10-12T15:57:46.429Z,10.90
2017-10-12T16:00:14.747Z,10.80
2017-10-12T16:02:43.083Z,10.80
2017-10-12T16:05:11.378Z,10.80
2017-10-12T16:07:39.699Z,10.80
2017-10-12T16:10:07.987Z,10.60
2017-10-12T16:12:36.275Z,10.60
2017-10-12T16:15:04.569Z,10.50
2017-10-12T16:17:32.868Z,10.40
2017-10-12T16:20:01.188Z,10.30
2017-10-12T16:22:59.002Z,10.30
2017-10-12T16:24:57.807Z,10.30
2017-10-12T16:27:26.093Z,10.20
2017-10-12T16:29:54.378Z,10.10
2017-10-12T16:32:22.677Z,10.00
2017-10-12T16:34:51.061Z,10.00
2017-10-12T16:37:19.654Z,10.00
2017-10-12T16:39:47.971Z,9.90
2017-10-12T16:42:16.419Z,9.90
2017-10-12T16:44:44.987Z,9.80
2017-10-12T16:47:13.338Z,9.80
2017-10-12T16:49:41.625Z,9.80
2017-10-12T16:52:09.924Z,9.80
2017-10-12T16:54:38.212Z,9.70
2017-10-12T16:57:06.505Z,9.70
2017-10-12T16:59:34.819Z,9.60
2017-10-12T17:02:03.871Z,9.60
2017-10-12T17:04:32.263Z,9.60
2017-10-12T17:07:02.120Z,9.50
2017-10-12T17:09:30.422Z,9.40
2017-10-12T17:11:59.503Z,9.30
2017-10-12T17:14:27.785Z,9.30
2017-10-12T17:16:56.093Z,9.30
2017-10-12T17:19:24.378Z,9.30
2017-10-12T17:21:52.712Z,9.20
2017-10-12T17:24:20.993Z,9.20
2017-10-12T17:26:50.077Z,9.20
2017-10-12T17:29:18.359Z,9.20
2017-10-12T17:31:46.695Z,9.30
2017-10-12T17:34:14.984Z,9.30
2017-10-12T17:36:43.454Z,9.30
2017-10-12T17:39:12.519Z,9.30
2017-10-12T17:41:40.828Z,9.20
2017-10-12T17:44:10.095Z,9.30
2017-10-12T17:46:38.449Z,9.30
2017-10-12T17:49:07.510Z,9.30
2017-10-12T17:51:35.801Z,9.30
2017-10-12T17:56:32.411Z,9.30
2017-10-12T17:59:00.744Z,9.20
2017-10-12T18:01:29.027Z,9.30
2017-10-12T18:03:58.095Z,9.10
2017-10-12T18:06:26.376Z,9.10
2017-10-12T18:08:55.427Z,9.00
2017-10-12T18:11:23.755Z,9.00
2017-10-12T18:13:52.151Z,8.90
2017-10-12T18:16:20.483Z,8.90
2017-10-12T18:18:48.869Z,8.90
2017-10-12T18:21:18.005Z,8.90
2017-10-12T18:23:46.362Z,8.90
2017-10-12T18:26:14.709Z,8.80
2017-10-12T18:28:43.888Z,8.90
2017-10-12T18:31:12.276Z,8.90
2017-10-12T18:33:40.671Z,9.00
2017-10-12T18:36:09.049Z,9.00
2017-10-12T18:38:37.428Z,9.00
2017-10-12T18:41:05.835Z,9.00
2017-10-12T18:43:34.314Z,9.00
2017-10-12T18:46:03.358Z,8.90
2017-10-12T18:48:31.675Z,8.90
2017-10-12T18:50:59.961Z,8.80
2017-10-12T18:53:28.291Z,8.90
2017-10-12T18:55:56.581Z,8.80
2017-10-12T18:58:24.940Z,8.80
2017-10-12T19:00:53.251Z,8.80
2017-10-12T19:03:22.317Z,8.90
2017-10-12T19:05:50.617Z,8.90
2017-10-12T19:08:18.926Z,9.00
2017-10-12T19:10:47.227Z,9.00
2017-10-12T19:13:16.283Z,8.90
2017-10-12T19:15:44.601Z,8.90
2017-10-12T19:18:12.888Z,8.90
2017-10-12T19:20:41.178Z,8.90
2017-10-12T19:23:09.455Z,8.90
2017-10-12T19:25:37.749Z,8.90
2017-10-12T19:33:02.680Z,8.80
2017-10-12T19:35:31.398Z,8.90
2017-10-12T19:37:59.710Z,8.90
2017-10-12T19:40:28.003Z,8.90
2017-10-12T19:42:56.316Z,8.90
2017-10-12T19:45:25.361Z,9.00
2017-10-12T19:47:53.633Z,9.00
2017-10-12T19:50:21.933Z,9.00
2017-10-12T19:52:50.536Z,9.00
2017-10-12T19:55:19.285Z,9.00
2017-10-12T19:57:47.899Z,9.10
2017-10-12T20:00:17.481Z,9.10
2017-10-12T20:02:46.232Z,9.10
2017-10-12T20:05:14.559Z,9.20
2017-10-12T20:07:42.985Z,9.20
2017-10-12T20:10:11.309Z,9.20
2017-10-12T20:12:39.624Z,9.30
2017-10-12T20:15:07.906Z,9.20
2017-10-12T20:17:36.214Z,9.30
2017-10-12T20:20:04.509Z,9.30
2017-10-12T20:22:32.802Z,9.20
2017-10-12T20:25:01.881Z,9.30
2017-10-12T20:27:30.160Z,9.20
2017-10-12T20:29:58.444Z,9.20
2017-10-12T20:32:26.753Z,9.20
2017-10-12T20:34:55.185Z,9.10
2017-10-12T20:37:24.275Z,9.10
2017-10-12T20:39:52.559Z,9.10
2017-10-12T20:42:20.860Z,9.00
2017-10-12T20:44:49.923Z,9.10
2017-10-12T20:47:18.216Z,9.10
2017-10-12T20:49:46.561Z,9.10
2017-10-12T20:52:14.855Z,9.10
2017-10-12T20:57:11.522Z,9.10
2017-10-12T20:59:39.779Z,9.00
2017-10-12T21:02:08.091Z,9.00
2017-10-12T21:04:37.199Z,8.90
2017-10-12T21:07:06.288Z,9.00
2017-10-12T21:09:34.582Z,9.00
2017-10-12T21:12:03.097Z,9.00
2017-10-12T21:14:32.142Z,9.10
2017-10-12T21:17:00.422Z,9.10
2017-10-12T21:19:30.100Z,9.00
2017-10-12T21:21:58.398Z,9.00
2017-10-12T21:24:27.466Z,9.00
2017-10-12T21:26:55.751Z,9.00
2017-10-12T21:29:24.063Z,9.00
2017-10-12T21:31:53.259Z,9.00
2017-10-12T21:34:21.544Z,9.00
2017-10-12T21:36:49.840Z,9.10
2017-10-12T21:39:18.169Z,9.10
2017-10-12T21:41:47.247Z,9.00
2017-10-12T21:44:15.548Z,9.00
2017-10-12T21:46:44.667Z,9.00
2017-10-12T21:49:13.776Z,9.10
2017-10-12T21:51:42.861Z,9.00
2017-10-12T21:54:11.171Z,9.00
2017-10-12T21:56:39.495Z,9.00
2017-10-12T21:59:07.810Z,9.10
2017-10-12T22:01:36.095Z,9.30
2017-10-12T22:04:04.378Z,9.30
2017-10-12T22:06:32.664Z,9.30
2017-10-12T22:09:00.985Z,9.30
2017-10-12T22:11:29.275Z,9.40
2017-10-12T22:13:57.570Z,9.30
2017-10-12T22:16:25.864Z,9.30
2017-10-12T22:18:55.087Z,9.50
2017-10-12T22:21:23.422Z,9.50
2017-10-12T22:23:51.703Z,9.50
2017-10-12T22:26:20.236Z,9.50
2017-10-12T22:28:48.574Z,9.50
2017-10-12T22:31:16.896Z,9.60
2017-10-12T22:33:45.201Z,9.60
2017-10-12T22:36:13.541Z,9.60
2017-10-12T22:38:41.821Z,9.50
2017-10-12T22:41:10.127Z,9.50
2017-10-12T22:43:38.419Z,9.50
2017-10-12T22:46:06.703Z,9.50
2017-10-12T22:48:34.983Z,9.50
2017-10-12T22:51:03.303Z,9.50
2017-10-12T22:53:31.619Z,9.40
2017-10-12T22:55:59.903Z,9.30
2017-10-12T22:58:28.219Z,9.30
2017-10-12T23:00:56.532Z,9.20
2017-10-12T23:03:24.826Z,9.20
2017-10-12T23:05:53.136Z,9.20
2017-10-12T23:08:21.441Z,9.10
2017-10-12T23:10:49.832Z,9.10
2017-10-12T23:13:18.159Z,9.10
2017-10-12T23:15:46.564Z,9.20
2017-10-12T23:18:14.897Z,9.20
2017-10-12T23:20:43.178Z,9.30
2017-10-12T23:23:11.506Z,9.30
2017-10-12T23:25:40.551Z,9.30
2017-10-12T23:28:08.864Z,9.20
2017-10-12T23:30:37.147Z,9.30
2017-10-12T23:33:05.432Z,9.30
2017-10-12T23:35:33.722Z,9.30
2017-10-12T23:38:02.014Z,9.40
2017-10-12T23:40:30.348Z,9.50
2017-10-12T23:42:59.429Z,9.60
2017-10-12T23:45:27.710Z,9.60
2017-10-12T23:47:56.025Z,9.70
2017-10-12T23:50:25.070Z,9.90
2017-10-12T23:52:53.394Z,9.80
2017-10-12T23:55:21.691Z,10.00
2017-10-12T23:57:50.002Z,9.90
